createdAt,value
2023-04-25T00:00:59.670Z,14.93
2023-04-25T00:03:47.048Z,14.91
2023-04-25T00:06:37.262Z,14.93
2023-04-25T00:09:23.535Z,14.97
2023-04-25T00:12:09.917Z,15.00
2023-04-25T00:14:57.983Z,15.02
2023-04-25T00:17:43.587Z,15.03
2023-04-25T00:20:29.525Z,15.00
2023-04-25T00:23:18.568Z,15.02
2023-04-25T00:26:04.695Z,15.03
2023-04-25T00:28:50.682Z,15.02
2023-04-25T00:31:36.932Z,15.04
2023-04-25T00:34:22.984Z,15.06
2023-04-25T00:37:08.892Z,15.06
2023-04-25T00:39:56.957Z,15.07
2023-04-25T00:42:42.832Z,15.06
2023-04-25T00:45:33.659Z,15.05
2023-04-25T00:48:22.621Z,15.06
2023-04-25T00:51:08.719Z,15.07
2023-04-25T00:53:54.707Z,15.09
2023-04-25T00:56:41.829Z,15.11
2023-04-25T00:59:29.160Z,15.09
2023-04-25T01:02:15.510Z,15.07
2023-04-25T01:05:01.967Z,15.10
2023-04-25T01:07:48.514Z,15.11
2023-04-25T01:10:34.586Z,15.06
2023-04-25T01:13:21.024Z,15.05
2023-04-25T01:16:06.986Z,15.01
2023-04-25T01:18:53.086Z,15.02
2023-04-25T01:21:39.250Z,14.97
2023-04-25T01:24:25.535Z,14.98
2023-04-25T01:27:12.060Z,14.94
2023-04-25T01:29:58.180Z,14.95
2023-04-25T01:32:44.442Z,14.98
2023-04-25T01:35:30.985Z,14.97
2023-04-25T01:38:16.970Z,14.98
2023-04-25T01:41:02.634Z,14.96
2023-04-25T01:43:49.068Z,14.95
2023-04-25T01:46:35.778Z,14.89
2023-04-25T01:49:21.621Z,14.88
2023-04-25T01:52:08.263Z,14.84
2023-04-25T01:54:54.508Z,14.83
2023-04-25T01:57:40.905Z,14.80
2023-04-25T02:00:27.454Z,14.83
2023-04-25T02:03:13.467Z,14.83
2023-04-25T02:05:59.627Z,14.82
2023-04-25T02:08:46.245Z,14.80
2023-04-25T02:11:32.896Z,14.80
2023-04-25T02:14:38.091Z,14.80
2023-04-25T02:17:44.098Z,14.82
2023-04-25T02:20:32.675Z,14.84
2023-04-25T02:23:20.255Z,14.87
2023-04-25T02:26:05.960Z,14.89
2023-04-25T02:28:52.527Z,14.89
2023-04-25T02:31:39.212Z,14.90
2023-04-25T02:34:25.028Z,14.90
2023-04-25T02:37:11.168Z,14.87
2023-04-25T02:39:57.382Z,14.87
2023-04-25T02:42:44.167Z,14.88
2023-04-25T02:46:39.274Z,14.82
2023-04-25T02:49:26.110Z,14.85
2023-04-25T02:52:12.294Z,14.83
2023-04-25T02:54:58.041Z,14.83
2023-04-25T02:57:45.207Z,14.84
2023-04-25T03:00:35.240Z,14.82
2023-04-25T03:03:23.033Z,14.76
2023-04-25T03:06:10.088Z,14.75
2023-04-25T03:08:56.566Z,14.72
2023-04-25T03:11:42.859Z,14.70
2023-04-25T03:14:28.865Z,14.69
2023-04-25T03:17:15.264Z,14.67
2023-04-25T03:20:01.813Z,14.66
2023-04-25T03:22:48.735Z,14.66
2023-04-25T03:25:34.640Z,14.66
2023-04-25T03:28:21.023Z,14.68
2023-04-25T03:31:07.328Z,14.67
2023-04-25T03:33:53.566Z,14.64
2023-04-25T03:36:41.932Z,14.62
2023-04-25T03:39:29.199Z,14.63
2023-04-25T03:42:15.916Z,14.61
2023-04-25T03:45:03.539Z,14.62
2023-04-25T03:47:49.725Z,14.63
2023-04-25T03:50:36.209Z,14.64
2023-04-25T03:53:22.491Z,14.62
2023-04-25T03:56:34.496Z,14.57
2023-04-25T03:59:28.551Z,14.57
2023-04-25T04:02:15.502Z,14.60
2023-04-25T04:05:02.096Z,14.58
2023-04-25T04:07:50.298Z,14.58
2023-04-25T04:10:37.324Z,14.60
2023-04-25T04:13:23.665Z,14.59
2023-04-25T04:16:09.696Z,14.57
2023-04-25T04:18:55.851Z,14.57
2023-04-25T04:21:41.778Z,14.60
2023-04-25T04:24:29.458Z,14.56
2023-04-25T04:27:21.173Z,14.57
2023-04-25T04:30:21.176Z,14.55
2023-04-25T04:33:16.233Z,14.58
2023-04-25T04:36:05.734Z,14.57
2023-04-25T04:38:51.693Z,14.57
2023-04-25T04:41:49.662Z,14.64
2023-04-25T04:44:53.349Z,14.63
2023-04-25T04:47:58.222Z,14.65
2023-04-25T04:50:54.414Z,14.69
2023-04-25T04:54:09.311Z,14.69
2023-04-25T04:57:21.457Z,14.74
2023-04-25T05:00:18.089Z,14.74
2023-04-25T05:03:33.972Z,14.76
2023-04-25T05:06:32.259Z,14.76
2023-04-25T05:09:48.217Z,14.80
2023-04-25T05:12:55.868Z,14.88
2023-04-25T05:15:53.834Z,14.89
2023-04-25T05:19:07.590Z,14.91
2023-04-25T05:22:22.342Z,14.94
2023-04-25T05:25:19.619Z,14.92
2023-04-25T05:28:34.990Z,14.95
2023-04-25T05:31:55.643Z,14.94
2023-04-25T05:34:42.971Z,15.01
2023-04-25T05:37:44.995Z,15.05
2023-04-25T05:40:42.489Z,15.08
2023-04-25T05:43:37.849Z,15.19
2023-04-25T05:46:40.835Z,15.20
2023-04-25T05:49:53.547Z,15.17
2023-04-25T05:52:48.737Z,15.27
2023-04-25T05:55:44.579Z,15.30
2023-04-25T05:58:46.237Z,15.34
2023-04-25T06:01:34.417Z,15.30
2023-04-25T06:04:20.455Z,15.36
2023-04-25T06:07:06.710Z,15.35
2023-04-25T06:09:52.937Z,15.37
2023-04-25T06:12:39.674Z,15.40
2023-04-25T06:15:28.450Z,15.38
2023-04-25T06:18:15.563Z,15.46
2023-04-25T06:21:01.943Z,15.48
2023-04-25T06:23:48.115Z,15.48
2023-04-25T06:26:39.875Z,15.51
2023-04-25T06:29:27.340Z,15.51
2023-04-25T06:32:13.082Z,15.53
2023-04-25T06:35:00.432Z,15.56
2023-04-25T06:37:46.650Z,15.55
2023-04-25T06:40:32.690Z,15.57
2023-04-25T06:43:18.971Z,15.62
2023-04-25T06:46:23.788Z,15.67
2023-04-25T06:49:10.104Z,15.68
2023-04-25T06:51:56.717Z,15.73
2023-04-25T06:54:43.058Z,15.76
2023-04-25T06:57:48.742Z,15.76
2023-04-25T07:00:54.987Z,15.80
2023-04-25T07:03:43.631Z,15.82
2023-04-25T07:06:35.427Z,15.85
2023-04-25T07:09:21.322Z,15.87
2023-04-25T07:25:55.940Z,16.11
2023-04-25T07:28:44.482Z,16.14
2023-04-25T07:31:30.285Z,16.15
2023-04-25T07:34:17.916Z,16.18
2023-04-25T07:37:04.360Z,16.20
2023-04-25T07:39:57.898Z,16.22
2023-04-25T07:42:43.766Z,16.25
2023-04-25T07:45:31.527Z,16.26
2023-04-25T07:48:22.340Z,16.27
2023-04-25T07:51:11.159Z,16.29
2023-04-25T07:58:33.642Z,16.30
2023-04-25T08:01:23.239Z,16.36
2023-04-25T08:04:14.504Z,16.37
2023-04-25T08:07:19.635Z,16.40
2023-04-25T08:37:33.574Z,16.49
2023-04-25T08:40:31.126Z,16.56
2023-04-25T08:43:36.182Z,16.57
2023-04-25T08:56:42.061Z,16.71
2023-04-25T09:01:11.825Z,16.70
2023-04-25T09:05:44.928Z,16.70
2023-04-25T09:10:12.913Z,16.71
2023-04-25T09:14:41.882Z,16.71
2023-04-25T09:18:14.293Z,16.78
2023-04-25T09:39:22.625Z,16.68
2023-04-25T09:42:23.521Z,16.72
2023-04-25T09:45:16.106Z,16.76
2023-04-25T09:48:07.913Z,16.82
2023-04-25T09:51:16.679Z,16.88
2023-04-25T09:54:05.273Z,16.95
2023-04-25T09:56:58.923Z,16.99
2023-04-25T09:59:51.310Z,17.10
2023-04-25T10:02:37.090Z,17.23
2023-04-25T10:05:27.093Z,17.34
2023-04-25T10:08:14.724Z,17.43
2023-04-25T10:11:05.797Z,17.53
2023-04-25T10:13:51.891Z,17.71
2023-04-25T10:16:38.957Z,17.84
2023-04-25T10:19:29.982Z,17.96
2023-04-25T10:22:25.876Z,18.05
2023-04-25T10:25:16.216Z,18.12
2023-04-25T10:28:04.951Z,18.15
2023-04-25T10:31:00.421Z,18.22
2023-04-25T10:33:46.311Z,18.30
2023-04-25T10:36:35.176Z,18.40
2023-04-25T10:39:26.298Z,18.44
2023-04-25T10:42:12.770Z,18.42
2023-04-25T10:45:17.104Z,18.40
2023-04-25T10:48:03.190Z,18.36
2023-04-25T10:50:49.130Z,18.30
2023-04-25T10:53:35.563Z,18.23
2023-04-25T10:56:23.017Z,18.22
2023-04-25T10:59:13.574Z,18.12
2023-04-25T11:01:59.784Z,17.86
2023-04-25T11:04:46.591Z,17.55
2023-04-25T11:10:57.469Z,16.88
2023-04-25T11:13:43.112Z,16.56
2023-04-25T11:14:37.962Z,17.20
2023-04-25T11:16:29.270Z,16.28
2023-04-25T11:19:15.216Z,16.08
2023-04-25T11:22:03.948Z,16.00
2023-04-25T11:24:49.804Z,15.95
2023-04-25T11:27:39.224Z,15.91
2023-04-25T11:30:26.660Z,15.93
2023-04-25T11:33:12.712Z,16.00
2023-04-25T11:35:59.200Z,16.06
2023-04-25T11:38:45.405Z,16.13
2023-04-25T11:41:31.736Z,16.25
2023-04-25T11:44:18.596Z,16.32
2023-04-25T11:47:04.485Z,16.38
2023-04-25T11:49:54.639Z,16.45
2023-04-25T11:52:47.988Z,16.48
2023-04-25T11:55:35.808Z,16.49
2023-04-25T11:58:28.880Z,16.47
2023-04-25T12:01:30.538Z,16.41
2023-04-25T12:04:24.491Z,16.38
2023-04-25T12:07:11.198Z,16.29
2023-04-25T12:09:57.719Z,16.23
2023-04-25T12:12:46.624Z,16.17
2023-04-25T12:15:34.738Z,16.07
2023-04-25T12:18:28.903Z,15.97
2023-04-25T12:21:15.770Z,15.89
2023-04-25T12:24:15.071Z,15.90
2023-04-25T12:27:09.513Z,15.91
2023-04-25T12:29:56.906Z,15.99
2023-04-25T12:32:43.720Z,16.06
2023-04-25T12:35:29.742Z,16.10
2023-04-25T12:38:26.770Z,16.15
2023-04-25T12:41:12.712Z,16.20
2023-04-25T12:43:58.732Z,16.27
2023-04-25T12:46:44.640Z,16.28
2023-04-25T12:49:30.406Z,16.27
2023-04-25T12:52:16.637Z,16.31
2023-04-25T12:55:02.835Z,16.34
2023-04-25T12:57:48.710Z,16.36
2023-04-25T13:00:35.034Z,16.34
2023-04-25T13:03:21.419Z,16.33
2023-04-25T13:06:08.045Z,16.32
2023-04-25T13:08:54.223Z,16.34
2023-04-25T13:11:41.741Z,16.35
2023-04-25T13:14:32.200Z,16.34
2023-04-25T13:17:18.041Z,16.34
2023-04-25T13:20:06.935Z,16.35
2023-04-25T13:22:52.763Z,16.34
2023-04-25T13:25:38.543Z,16.37
2023-04-25T13:28:25.868Z,16.37
2023-04-25T13:31:11.963Z,16.40
2023-04-25T13:33:58.050Z,16.45
2023-04-25T13:36:44.379Z,16.53
2023-04-25T13:39:30.553Z,16.63
2023-04-25T13:42:17.028Z,16.65
2023-04-25T13:45:03.970Z,16.67
2023-04-25T13:47:50.020Z,16.70
2023-04-25T13:50:36.443Z,16.73
2023-04-25T13:53:22.514Z,16.80
2023-04-25T13:56:08.448Z,16.78
2023-04-25T13:58:54.304Z,16.76
2023-04-25T14:01:40.862Z,16.78
2023-04-25T14:04:27.349Z,16.81
2023-04-25T14:07:13.500Z,16.87
2023-04-25T14:09:59.162Z,16.89
2023-04-25T14:12:45.007Z,16.96
2023-04-25T14:15:34.608Z,17.01
2023-04-25T14:18:20.716Z,17.02
2023-04-25T14:21:06.942Z,17.06
2023-04-25T14:23:53.623Z,17.07
2023-04-25T14:26:40.049Z,17.02
2023-04-25T14:29:25.940Z,16.93
2023-04-25T14:32:11.984Z,16.87
2023-04-25T14:34:58.375Z,16.84
2023-04-25T14:37:45.115Z,16.82
2023-04-25T14:40:31.017Z,16.76
2023-04-25T14:43:16.864Z,16.82
2023-04-25T14:46:03.245Z,16.82
2023-04-25T14:48:49.183Z,16.80
2023-04-25T14:51:35.453Z,16.72
2023-04-25T14:54:21.858Z,16.67
2023-04-25T14:57:08.480Z,16.61
2023-04-25T14:59:54.252Z,16.57
2023-04-25T15:02:40.652Z,16.54
2023-04-25T15:05:26.706Z,16.49
2023-04-25T15:08:13.173Z,16.42
2023-04-25T15:10:59.506Z,16.37
2023-04-25T15:13:45.669Z,16.34
2023-04-25T15:16:32.590Z,16.30
2023-04-25T15:19:18.947Z,16.27
2023-04-25T15:22:05.864Z,16.24
2023-04-25T15:24:52.062Z,16.19
2023-04-25T15:27:42.660Z,16.17
2023-04-25T15:30:28.699Z,16.11
2023-04-25T15:33:21.067Z,16.02
2023-04-25T15:36:07.368Z,15.95
2023-04-25T15:38:53.279Z,15.90
2023-04-25T15:41:39.376Z,15.82
2023-04-25T15:44:25.854Z,15.78
2023-04-25T15:47:11.965Z,15.76
2023-04-25T15:49:57.920Z,15.76
2023-04-25T15:52:43.965Z,15.74
2023-04-25T15:55:30.062Z,15.77
2023-04-25T15:58:18.018Z,15.80
2023-04-25T16:01:05.144Z,15.77
2023-04-25T16:03:53.175Z,15.80
2023-04-25T16:06:39.723Z,15.79
2023-04-25T16:09:25.994Z,15.77
2023-04-25T16:12:12.232Z,15.73
2023-04-25T16:14:58.414Z,15.71
2023-04-25T16:17:45.272Z,15.66
2023-04-25T16:20:31.418Z,15.63
2023-04-25T16:23:18.366Z,15.54
2023-04-25T16:26:04.153Z,15.52
2023-04-25T16:28:49.994Z,15.45
2023-04-25T16:31:38.491Z,15.39
2023-04-25T16:34:27.520Z,15.37
2023-04-25T16:37:13.163Z,15.39
2023-04-25T16:39:58.999Z,15.40
2023-04-25T16:42:44.806Z,15.37
2023-04-25T16:45:30.418Z,15.37
2023-04-25T16:48:19.289Z,15.32
2023-04-25T16:51:05.165Z,15.32
2023-04-25T16:53:51.761Z,15.29
2023-04-25T16:56:37.623Z,15.27
2023-04-25T16:59:23.720Z,15.23
2023-04-25T17:02:12.949Z,15.21
2023-04-25T17:04:59.243Z,15.17
2023-04-25T17:07:44.972Z,15.12
2023-04-25T17:10:30.907Z,15.09
2023-04-25T17:13:17.094Z,15.05
2023-04-25T17:16:03.438Z,15.04
2023-04-25T17:18:53.045Z,15.00
2023-04-25T17:21:40.514Z,14.98
2023-04-25T17:24:26.527Z,14.90
2023-04-25T17:27:12.257Z,14.85
2023-04-25T17:29:57.999Z,14.86
2023-04-25T17:32:44.569Z,14.82
2023-04-25T17:35:30.844Z,14.78
2023-04-25T17:38:16.501Z,14.79
2023-04-25T17:41:02.763Z,14.77
2023-04-25T17:43:49.415Z,14.77
2023-04-25T17:46:36.234Z,14.78
2023-04-25T17:49:22.206Z,14.75
2023-04-25T17:52:07.977Z,14.74
2023-04-25T17:54:54.817Z,14.73
2023-04-25T17:57:40.910Z,14.74
2023-04-25T18:00:27.223Z,14.75
2023-04-25T18:03:13.617Z,14.75
2023-04-25T18:05:59.684Z,14.77
2023-04-25T18:08:46.323Z,14.75
2023-04-25T18:11:32.474Z,14.76
2023-04-25T18:14:20.460Z,14.77
2023-04-25T18:17:08.163Z,14.77
2023-04-25T18:19:54.268Z,14.82
2023-04-25T18:22:40.521Z,14.84
2023-04-25T18:25:26.714Z,14.82
2023-04-25T18:28:12.833Z,14.89
2023-04-25T18:30:59.015Z,14.85
2023-04-25T18:33:45.385Z,14.85
2023-04-25T18:36:31.365Z,14.89
2023-04-25T18:39:22.634Z,14.88
2023-04-25T18:42:09.646Z,14.87
2023-04-25T18:44:56.372Z,14.87
2023-04-25T18:47:42.801Z,14.86
2023-04-25T18:50:28.792Z,14.84
2023-04-25T18:53:14.948Z,14.83
2023-04-25T18:56:01.216Z,14.84
2023-04-25T18:58:47.341Z,14.84
2023-04-25T19:01:33.997Z,14.86
2023-04-25T19:04:20.280Z,14.84
2023-04-25T19:07:06.764Z,14.80
2023-04-25T19:09:52.577Z,14.77
2023-04-25T19:12:38.802Z,14.71
2023-04-25T19:15:24.989Z,14.68
2023-04-25T19:18:11.322Z,14.59
2023-04-25T19:20:57.484Z,14.51
2023-04-25T19:23:43.540Z,14.44
2023-04-25T19:26:29.470Z,14.42
2023-04-25T19:29:16.242Z,14.41
2023-04-25T19:32:03.673Z,14.37
2023-04-25T19:34:49.855Z,14.37
2023-04-25T19:37:36.012Z,14.38
2023-04-25T19:40:22.859Z,14.40
2023-04-25T19:43:12.240Z,14.40
2023-04-25T19:45:58.414Z,14.40
2023-04-25T19:48:44.343Z,14.39
2023-04-25T19:51:32.074Z,14.40
2023-04-25T19:54:18.441Z,14.45
2023-04-25T19:57:04.340Z,14.45
2023-04-25T19:59:50.651Z,14.48
2023-04-25T20:02:37.208Z,14.48
2023-04-25T20:05:25.132Z,14.47
2023-04-25T20:08:11.029Z,14.49
2023-04-25T20:10:57.121Z,14.45
2023-04-25T20:13:43.534Z,14.42
2023-04-25T20:16:30.272Z,14.43
2023-04-25T20:19:16.855Z,14.39
2023-04-25T20:22:02.828Z,14.37
2023-04-25T20:24:49.182Z,14.34
2023-04-25T20:27:35.076Z,14.33
2023-04-25T20:30:21.770Z,14.29
2023-04-25T20:33:08.047Z,14.26
2023-04-25T20:35:54.447Z,14.24
2023-04-25T20:38:40.884Z,14.21
2023-04-25T20:41:26.929Z,14.19
2023-04-25T20:44:13.177Z,14.17
2023-04-25T20:46:59.483Z,14.13
2023-04-25T20:49:46.111Z,14.10
2023-04-25T20:52:32.640Z,14.12
2023-04-25T20:55:18.876Z,14.07
2023-04-25T20:58:05.377Z,14.08
2023-04-25T21:00:51.747Z,14.06
2023-04-25T21:03:37.961Z,14.00
2023-04-25T21:06:24.043Z,13.92
2023-04-25T21:09:10.166Z,13.90
2023-04-25T21:11:55.872Z,13.84
2023-04-25T21:14:41.759Z,13.82
2023-04-25T21:17:27.712Z,13.82
2023-04-25T21:20:15.980Z,13.80
2023-04-25T21:23:01.916Z,13.78
2023-04-25T21:25:48.943Z,13.76
2023-04-25T21:28:34.747Z,13.71
2023-04-25T21:31:20.544Z,13.69
2023-04-25T21:34:07.297Z,13.63
2023-04-25T21:36:53.347Z,13.58
2023-04-25T21:39:39.088Z,13.53
2023-04-25T21:42:25.024Z,13.50
2023-04-25T21:45:11.579Z,13.47
2023-04-25T21:47:57.784Z,13.45
2023-04-25T21:50:44.438Z,13.38
2023-04-25T21:53:31.555Z,13.33
2023-04-25T21:56:17.222Z,13.28
2023-04-25T21:59:04.441Z,13.25
2023-04-25T22:01:50.461Z,13.18
2023-04-25T22:04:36.775Z,13.14
2023-04-25T22:07:22.833Z,13.09
2023-04-25T22:10:09.401Z,13.07
2023-04-25T22:12:56.100Z,13.09
2023-04-25T22:15:42.321Z,13.10
2023-04-25T22:18:29.108Z,13.09
2023-04-25T22:21:15.267Z,13.08
2023-04-25T22:24:01.486Z,13.06
2023-04-25T22:26:48.254Z,13.03
2023-04-25T22:29:34.297Z,13.05
2023-04-25T22:32:20.212Z,13.04
2023-04-25T22:35:07.371Z,13.02
2023-04-25T22:37:53.458Z,13.01
2023-04-25T22:40:39.194Z,13.02
2023-04-25T22:43:26.171Z,13.00
2023-04-25T22:46:21.733Z,12.99
2023-04-25T22:49:08.151Z,13.00
2023-04-25T22:51:56.262Z,12.95
2023-04-25T22:54:42.242Z,12.97
2023-04-25T22:57:28.163Z,12.96
2023-04-25T23:00:20.163Z,12.95
2023-04-25T23:03:07.928Z,12.96
2023-04-25T23:05:54.051Z,12.97
2023-04-25T23:08:40.749Z,12.93
2023-04-25T23:11:26.677Z,12.93
2023-04-25T23:14:12.430Z,12.88
2023-04-25T23:16:58.420Z,12.92
2023-04-25T23:19:44.213Z,12.94
2023-04-25T23:22:30.211Z,12.95
2023-04-25T23:25:16.766Z,12.96
2023-04-25T23:28:02.715Z,12.96
2023-04-25T23:30:48.494Z,12.96
2023-04-25T23:33:34.843Z,13.00
2023-04-25T23:36:23.923Z,12.99
2023-04-25T23:39:10.630Z,12.95
2023-04-25T23:41:57.810Z,12.97
2023-04-25T23:44:43.966Z,12.97
2023-04-25T23:47:30.013Z,12.96
2023-04-25T23:50:16.029Z,12.93
2023-04-25T23:53:02.342Z,12.93
2023-04-25T23:55:48.178Z,12.90
2023-04-25T23:58:34.499Z,12.90
